Time;durP1;ratioP1;P1;durP2;ratioP2;P2;SDS_P1;SDS_P2;PMS_P1;PMS_P2;Temp;Humidity;BMP_temperature;BMP_pressure;BME280_temperature;BME280_humidity;BME280_pressure;Samples;Min_cycle;Max_cycle;Signal;HPM_P1;HPM_P2
2023/03/13 00:00:54;;;;;;;8.95;7.13;;;;;;;6.74;100.00;95825.88;5019257;28;20021;-71
2023/03/13 00:03:20;;;;;;;11.45;7.03;;;;;;;6.92;100.00;95829.84;5028112;28;20514;-71
2023/03/13 00:05:46;;;;;;;8.45;6.15;;;;;;;6.88;100.00;95831.88;5026561;28;20017;-71
2023/03/13 00:08:11;;;;;;;8.38;5.70;;;;;;;6.81;100.00;95831.50;5021557;28;20130;-59
2023/03/13 00:10:38;;;;;;;9.68;7.72;;;;;;;6.87;100.00;95824.97;5020851;28;20496;-69
2023/03/13 00:13:04;;;;;;;16.55;12.18;;;;;;;6.83;100.00;95832.22;5018556;28;20067;-68
2023/03/13 00:15:29;;;;;;;10.25;8.88;;;;;;;6.85;100.00;95832.91;5025709;28;20037;-68
2023/03/13 00:17:54;;;;;;;9.25;6.78;;;;;;;6.88;100.00;95830.06;5023032;28;20028;-69
2023/03/13 00:20:20;;;;;;;5.57;5.03;;;;;;;6.95;100.00;95834.84;5022485;28;20030;-68
2023/03/13 00:22:45;;;;;;;6.80;5.18;;;;;;;6.95;100.00;95837.44;5020248;28;20033;-69
2023/03/13 00:25:11;;;;;;;5.47;4.97;;;;;;;6.97;100.00;95833.78;5022659;28;20100;-60
2023/03/13 00:27:36;;;;;;;9.13;5.63;;;;;;;6.94;100.00;95831.41;5025733;28;20036;-63
2023/03/13 00:30:01;;;;;;;5.15;4.75;;;;;;;6.96;100.00;95828.66;5020831;28;20108;-67
2023/03/13 00:32:27;;;;;;;6.45;5.85;;;;;;;6.97;100.00;95835.59;5017620;28;20017;-68
2023/03/13 00:34:52;;;;;;;7.00;5.35;;;;;;;6.95;100.00;95827.81;5026839;28;20052;-67
2023/03/13 00:37:17;;;;;;;6.72;5.82;;;;;;;6.95;100.00;95827.81;5023203;28;20031;-68
2023/03/13 00:39:43;;;;;;;10.23;4.60;;;;;;;6.99;100.00;95824.03;5024112;28;20037;-67
2023/03/13 00:42:09;;;;;;;3.78;3.42;;;;;;;7.01;100.00;95821.31;5023309;28;20022;-68
2023/03/13 00:44:34;;;;;;;3.78;3.38;;;;;;;7.05;100.00;95827.97;5017619;28;20048;-69
2023/03/13 00:46:59;;;;;;;5.15;3.35;;;;;;;7.06;100.00;95832.25;5021674;28;20033;-63
2023/03/13 00:49:25;;;;;;;3.58;3.28;;;;;;;7.08;100.00;95832.16;5019404;28;20032;-63
2023/03/13 00:51:50;;;;;;;4.60;4.18;;;;;;;7.14;100.00;95837.72;5015465;28;20033;-63
2023/03/13 00:54:16;;;;;;;4.28;3.85;;;;;;;7.15;100.00;95836.78;5016242;28;20406;-63
2023/03/13 00:56:41;;;;;;;4.55;3.97;;;;;;;7.13;100.00;95838.69;5023421;28;20025;-63
2023/03/13 00:59:06;;;;;;;5.00;4.03;;;;;;;7.13;100.00;95835.25;5024239;28;20113;-63
2023/03/13 01:01:34;;;;;;;4.03;3.72;;;;;;;7.11;100.00;95837.97;5020494;28;20022;-63
2023/03/13 01:04:05;;;;;;;6.50;4.35;;;;;;;7.12;100.00;95838.81;5024796;28;20036;-63
2023/03/13 01:06:33;;;;;;;4.28;3.88;;;;;;;7.09;100.00;95834.63;5023100;28;20025;-63
2023/03/13 01:08:59;;;;;;;6.45;3.60;;;;;;;7.03;100.00;95835.09;5021062;28;20030;-62
2023/03/13 01:11:30;;;;;;;4.25;3.72;;;;;;;7.05;100.00;95833.19;5025227;28;20494;-62
2023/03/13 01:14:01;;;;;;;5.70;3.47;;;;;;;7.05;100.00;95833.19;5021455;28;20029;-62
2023/03/13 01:16:29;;;;;;;2.92;2.72;;;;;;;7.13;100.00;95838.69;5022143;28;20028;-62
2023/03/13 01:18:58;;;;;;;2.65;2.45;;;;;;;7.17;100.00;95839.28;5020994;28;20099;-62
2023/03/13 01:21:24;;;;;;;4.75;2.95;;;;;;;7.16;100.00;95840.25;5019339;28;20487;-63
2023/03/13 01:23:50;;;;;;;7.13;2.97;;;;;;;7.16;100.00;95841.06;5023242;28;20036;-70
2023/03/13 01:26:16;;;;;;;3.15;2.85;;;;;;;7.13;100.00;95841.28;5025979;28;20018;-59
2023/03/13 01:28:42;;;;;;;4.43;3.20;;;;;;;7.07;100.00;95830.44;5016331;28;20029;-59
2023/03/13 01:31:26;;;;;;;5.00;3.55;;;;;;;7.01;100.00;95831.78;5022281;28;20024;-59
2023/03/13 01:33:55;;;;;;;3.90;3.53;;;;;;;6.96;100.00;95823.41;5020292;28;20025;-60
2023/03/13 01:36:21;;;;;;;3.92;3.58;;;;;;;6.97;100.00;95819.88;5021802;28;20073;-60
2023/03/13 01:38:49;;;;;;;4.03;3.63;;;;;;;6.99;100.00;95805.69;5012299;28;20064;-60
2023/03/13 01:41:14;;;;;;;4.38;3.20;;;;;;;6.96;100.00;95805.09;5015125;28;20030;-67
2023/03/13 01:43:40;;;;;;;5.13;3.15;;;;;;;6.92;100.00;95807.13;5027159;28;20017;-66
2023/03/13 01:46:20;;;;;;;4.40;3.22;;;;;;;6.99;100.00;95812.72;5019723;28;20401;-62
2023/03/13 01:48:54;;;;;;;3.63;3.10;;;;;;;7.00;100.00;95807.38;5023051;28;20010;-63
2023/03/13 01:51:27;;;;;;;4.93;3.20;;;;;;;7.01;100.00;95802.97;5019575;28;20022;-63
2023/03/13 01:54:08;;;;;;;4.85;3.17;;;;;;;6.97;100.00;95798.94;5023871;28;20038;-63
2023/03/13 01:56:39;;;;;;;4.85;3.47;;;;;;;6.96;100.00;95794.63;5014654;28;20038;-63
2023/03/13 01:59:09;;;;;;;3.33;3.03;;;;;;;6.92;100.00;95794.03;5023667;28;20021;-62
2023/03/13 02:01:35;;;;;;;3.38;3.10;;;;;;;6.95;100.00;95795.56;5022334;28;20029;-62
2023/03/13 02:04:01;;;;;;;4.18;2.80;;;;;;;6.93;100.00;95797.47;5018587;28;20044;-68
2023/03/13 02:06:29;;;;;;;11.13;8.93;;;;;;;7.00;100.00;95791.66;5021775;28;20030;-62
2023/03/13 02:09:03;;;;;;;12.48;10.27;;;;;;;7.02;100.00;95796.78;5020216;28;20029;-62
2023/03/13 02:12:07;;;;;;;4.25;3.47;;;;;;;7.02;100.00;95797.59;5021062;28;20155;-62
2023/03/13 02:14:35;;;;;;;3.70;3.40;;;;;;;7.00;100.00;95793.47;4946255;29;20031;-62
2023/03/13 02:17:02;;;;;;;5.93;3.50;;;;;;;6.98;100.00;95788.31;5000504;28;20042;-62
2023/03/13 02:19:43;;;;;;;3.50;3.00;;;;;;;7.06;100.00;95787.75;5020346;28;20055;-62
2023/03/13 02:22:42;;;;;;;3.53;3.25;;;;;;;7.07;100.00;95778.09;5023484;28;20025;-67
2023/03/13 02:25:08;;;;;;;3.72;3.22;;;;;;;7.07;100.00;95771.09;5023808;28;20410;-67
2023/03/13 02:27:33;;;;;;;3.20;3.00;;;;;;;7.08;100.00;95777.97;5017576;28;20029;-68
2023/03/13 02:29:59;;;;;;;12.80;11.18;;;;;;;7.09;100.00;95769.19;5022654;28;20033;-68
2023/03/13 02:32:26;;;;;;;17.80;14.63;;;;;;;7.10;100.00;95765.59;5025654;28;20024;-67
2023/03/13 02:34:55;;;;;;;10.07;7.97;;;;;;;7.05;100.00;95765.13;5019547;28;20025;-67
2023/03/13 02:37:24;;;;;;;6.63;4.78;;;;;;;7.09;100.00;95766.56;5025877;28;20037;-66
2023/03/13 02:39:50;;;;;;;5.32;4.45;;;;;;;7.05;100.00;95765.13;5025751;28;20032;-62
2023/03/13 02:42:19;;;;;;;4.68;3.67;;;;;;;7.03;100.00;95767.03;5021223;28;20017;-62
2023/03/13 02:44:46;;;;;;;7.05;4.00;;;;;;;7.06;100.00;95753.72;5023556;28;20032;-73
2023/03/13 02:47:11;;;;;;;18.35;10.75;;;;;;;7.07;100.00;95763.22;5022586;28;20018;-73
2023/03/13 02:49:37;;;;;;;8.55;5.50;;;;;;;7.04;100.00;95745.16;5024917;28;20064;-73
2023/03/13 02:52:23;;;;;;;10.48;5.55;;;;;;;7.07;100.00;95742.28;5028186;28;20088;-73
2023/03/13 02:54:51;;;;;;;27.20;20.05;;;;;;;7.08;100.00;95753.59;5022965;28;20490;-73
2023/03/13 02:57:17;;;;;;;4.32;3.90;;;;;;;7.05;100.00;95749.44;5025330;28;20495;-73
2023/03/13 02:59:42;;;;;;;3.45;3.15;;;;;;;6.99;100.00;95763.81;5020007;28;20058;-63
2023/03/13 03:02:07;;;;;;;7.18;3.20;;;;;;;6.98;100.00;95762.16;5021796;28;20087;-65
2023/03/13 03:04:33;;;;;;;4.40;4.00;;;;;;;6.98;100.00;95770.00;5026221;28;20025;-63
2023/03/13 03:06:58;;;;;;;5.55;4.95;;;;;;;6.95;100.00;95770.25;5015479;28;20503;-62
2023/03/13 03:09:24;;;;;;;5.60;4.65;;;;;;;6.95;100.00;95767.63;5023837;28;20419;-63
2023/03/13 03:11:50;;;;;;;5.60;5.05;;;;;;;6.93;100.00;95769.53;5029923;28;20140;-63
2023/03/13 03:14:16;;;;;;;10.95;5.07;;;;;;;6.91;100.00;95781.91;5018319;28;20026;-63
2023/03/13 03:16:41;;;;;;;7.60;5.05;;;;;;;6.92;100.00;95786.19;5015181;28;20113;-63
2023/03/13 03:19:07;;;;;;;11.63;7.93;;;;;;;6.92;100.00;95785.34;5028845;28;20140;-58
2023/03/13 03:21:33;;;;;;;12.88;5.50;;;;;;;6.93;100.00;95800.09;5027817;28;20029;-65
2023/03/13 03:23:59;;;;;;;4.93;4.20;;;;;;;7.06;100.00;95787.75;5022828;28;20037;-73
2023/03/13 03:26:24;;;;;;;4.55;3.75;;;;;;;7.00;100.00;95793.47;5019535;28;20026;-73
2023/03/13 03:28:50;;;;;;;5.43;2.97;;;;;;;6.92;100.00;95806.28;5024750;28;20033;-73
2023/03/13 03:31:16;;;;;;;3.38;2.90;;;;;;;6.92;100.00;95809.75;5025772;28;20021;-72
2023/03/13 03:33:42;;;;;;;5.63;4.50;;;;;;;6.83;100.00;95813.88;5021475;28;20083;-72
2023/03/13 03:36:14;;;;;;;17.50;11.63;;;;;;;6.76;100.00;95817.94;5031443;28;20033;-72
2023/03/13 03:38:41;;;;;;;13.40;9.80;;;;;;;6.69;100.00;95819.31;5024463;28;20029;-68
2023/03/13 03:41:07;;;;;;;5.80;4.30;;;;;;;6.65;100.00;95810.03;5015219;28;20462;-60
2023/03/13 03:43:33;;;;;;;4.43;3.85;;;;;;;6.59;100.00;95806.94;5017458;28;20036;-60
2023/03/13 03:45:59;;;;;;;7.18;3.20;;;;;;;6.74;100.00;95798.88;5015754;28;20034;-60
2023/03/13 03:48:24;;;;;;;4.63;3.00;;;;;;;6.80;100.00;95797.56;5018052;28;20029;-60
2023/03/13 03:50:49;;;;;;;4.80;3.10;;;;;;;6.76;100.00;95798.75;5020373;28;20049;-60
2023/03/13 03:53:15;;;;;;;3.67;3.25;;;;;;;6.62;100.00;95799.81;5025169;28;20025;-60
2023/03/13 03:55:40;;;;;;;5.78;3.60;;;;;;;6.57;100.00;95800.13;5019345;28;20788;-60
2023/03/13 03:58:06;;;;;;;65.90;35.50;;;;;;;6.51;100.00;95804.03;5026780;28;20033;-64
2023/03/13 04:00:31;;;;;;;44.72;24.48;;;;;;;6.50;100.00;95806.78;5021321;28;20061;-63
2023/03/13 04:02:56;;;;;;;18.30;11.85;;;;;;;6.49;100.00;95799.88;5021753;28;20381;-63
2023/03/13 04:05:23;;;;;;;22.80;11.27;;;;;;;6.51;100.00;95801.41;5022837;28;20032;-63
2023/03/13 04:07:48;;;;;;;6.88;4.93;;;;;;;6.54;100.00;95800.38;5023857;28;20033;-63
2023/03/13 04:10:14;;;;;;;4.78;4.15;;;;;;;6.54;100.00;95793.38;5022036;28;20029;-63
2023/03/13 04:12:40;;;;;;;5.22;3.50;;;;;;;6.53;100.00;95770.78;5029399;28;20071;-63
2023/03/13 04:15:06;;;;;;;4.72;3.30;;;;;;;6.51;100.00;95759.56;5024832;28;20070;-63
2023/03/13 04:17:32;;;;;;;7.13;4.20;;;;;;;6.54;100.00;95753.28;5013818;28;20119;-67
2023/03/13 04:19:57;;;;;;;24.13;16.92;;;;;;;6.49;100.00;95748.38;5024520;28;20037;-67
2023/03/13 04:22:23;;;;;;;14.52;10.98;;;;;;;6.50;100.00;95736.97;5021928;28;20029;-67
2023/03/13 04:24:48;;;;;;;7.32;4.60;;;;;;;6.71;100.00;95741.53;5023610;28;20392;-67
2023/03/13 04:27:14;;;;;;;8.38;5.40;;;;;;;6.65;100.00;95752.47;5025964;28;20026;-67
2023/03/13 04:29:39;;;;;;;7.03;5.38;;;;;;;6.64;100.00;95756.03;5023682;28;20406;-68
2023/03/13 04:32:05;;;;;;;6.15;4.70;;;;;;;6.64;100.00;95759.50;5017907;28;20459;-67
2023/03/13 04:34:30;;;;;;;10.82;9.23;;;;;;;6.65;100.00;95762.94;5021258;28;20026;-67
2023/03/13 04:36:56;;;;;;;5.93;5.43;;;;;;;6.65;100.00;95758.56;5023700;28;20090;-61
2023/03/13 04:39:24;;;;;;;7.18;4.03;;;;;;;6.65;100.00;95765.56;5027593;28;20034;-63
2023/03/13 04:41:54;;;;;;;6.38;4.40;;;;;;;6.69;100.00;95761.75;5011826;28;20029;-63
2023/03/13 04:44:20;;;;;;;4.32;3.35;;;;;;;6.73;100.00;95748.31;5020057;28;20030;-63
2023/03/13 04:46:45;;;;;;;83.47;52.80;;;;;;;6.78;100.00;95741.91;5018674;28;20021;-63
2023/03/13 04:49:10;;;;;;;38.40;26.08;;;;;;;6.77;100.00;95756.78;5016187;28;20049;-63
2023/03/13 04:51:36;;;;;;;7.03;4.50;;;;;;;6.77;100.00;95756.78;5023254;28;20092;-63
2023/03/13 04:54:02;;;;;;;3.40;3.17;;;;;;;6.79;100.00;95744.41;5019325;28;20068;-63
2023/03/13 04:56:27;;;;;;;4.60;2.70;;;;;;;6.82;100.00;95749.41;5019622;28;20427;-67
2023/03/13 04:58:53;;;;;;;4.20;3.08;;;;;;;6.86;100.00;95739.56;5017655;28;20033;-64
2023/03/13 05:01:19;;;;;;;3.17;2.88;;;;;;;6.83;100.00;95745.84;5013752;28;20300;-63
2023/03/13 05:03:44;;;;;;;3.47;3.25;;;;;;;6.79;100.00;95747.03;5012941;28;20014;-63
2023/03/13 05:06:10;;;;;;;3.40;3.10;;;;;;;6.74;100.00;95746.53;5017663;28;20112;-64
2023/03/13 05:08:36;;;;;;;11.88;6.43;;;;;;;6.62;100.00;95753.53;5024728;28;20029;-63
2023/03/13 05:11:02;;;;;;;21.40;16.13;;;;;;;6.56;100.00;95754.84;5016805;28;20041;-64
2023/03/13 05:13:27;;;;;;;17.38;12.32;;;;;;;6.52;100.00;95753.41;5016498;28;20030;-61
2023/03/13 05:15:53;;;;;;;5.85;5.25;;;;;;;6.50;100.00;95744.81;5015443;28;20025;-65
2023/03/13 05:18:18;;;;;;;7.85;3.97;;;;;;;6.47;100.00;95739.81;5028373;28;20058;-67
2023/03/13 05:20:44;;;;;;;5.10;3.38;;;;;;;6.41;100.00;95728.06;5023436;28;20999;-68
2023/03/13 05:23:09;;;;;;;5.55;3.45;;;;;;;6.37;100.00;95724.00;5027676;28;20113;-68
2023/03/13 05:25:34;;;;;;;7.93;3.83;;;;;;;6.32;100.00;95712.22;5024773;28;20025;-67
2023/03/13 05:28:00;;;;;;;17.10;14.82;;;;;;;6.31;100.00;95719.22;5028666;28;20403;-67
2023/03/13 05:30:25;;;;;;;12.93;10.35;;;;;;;6.25;100.00;95712.66;5025099;28;20491;-67
2023/03/13 05:32:51;;;;;;;15.02;12.60;;;;;;;6.25;100.00;95710.06;5020292;28;20032;-68
2023/03/13 05:35:16;;;;;;;13.70;11.40;;;;;;;6.23;100.00;95716.38;5025097;28;20100;-63
2023/03/13 05:37:42;;;;;;;13.70;11.20;;;;;;;6.18;100.00;95702.78;5010566;28;20026;-72
2023/03/13 05:40:09;;;;;;;8.70;6.03;;;;;;;6.10;100.00;95700.75;5010302;28;20030;-72
2023/03/13 05:42:34;;;;;;;7.53;6.90;;;;;;;6.03;100.00;95684.69;5010018;28;20069;-71
2023/03/13 05:45:00;;;;;;;9.32;7.40;;;;;;;5.95;100.00;95685.22;5024995;28;20065;-72
2023/03/13 05:47:25;;;;;;;6.78;6.05;;;;;;;5.88;100.00;95681.41;5011050;28;20022;-72
2023/03/13 05:49:50;;;;;;;4.55;4.10;;;;;;;5.84;100.00;95669.50;5012889;28;20037;-72
2023/03/13 05:52:16;;;;;;;9.52;6.70;;;;;;;5.85;100.00;95664.16;5021541;28;20025;-63
2023/03/13 05:54:41;;;;;;;18.00;16.38;;;;;;;5.83;100.00;95662.59;5013557;28;20037;-64
2023/03/13 05:57:06;;;;;;;14.60;13.10;;;;;;;5.81;100.00;95648.81;5021471;28;20088;-62
2023/03/13 05:59:32;;;;;;;11.73;10.23;;;;;;;5.70;100.00;95653.06;5011907;28;20440;-62
2023/03/13 06:01:57;;;;;;;8.45;5.22;;;;;;;5.58;100.00;95653.97;5010695;28;20033;-62
2023/03/13 06:04:23;;;;;;;4.65;4.35;;;;;;;5.50;100.00;95654.50;5011298;28;20040;-62
2023/03/13 06:06:48;;;;;;;5.57;3.80;;;;;;;5.50;100.00;95661.53;5009939;28;20034;-62
2023/03/13 06:09:14;;;;;;;5.13;3.65;;;;;;;5.47;100.00;95656.53;5024789;28;20033;-62
2023/03/13 06:11:39;;;;;;;3.67;3.33;;;;;;;5.44;100.00;95653.22;5027604;28;20147;-60
2023/03/13 06:14:04;;;;;;;4.40;2.90;;;;;;;5.44;100.00;95660.19;5018066;28;20033;-66
2023/03/13 06:16:30;;;;;;;6.35;5.22;;;;;;;5.46;100.00;95666.13;5027985;28;20100;-69
2023/03/13 06:18:55;;;;;;;6.28;5.50;;;;;;;5.49;100.00;95660.69;5028996;28;20061;-67
2023/03/13 06:21:20;;;;;;;5.18;4.78;;;;;;;5.53;100.00;95646.47;5016452;28;20483;-67
2023/03/13 06:23:46;;;;;;;9.07;4.68;;;;;;;5.58;100.00;95648.75;5032532;28;20509;-67
2023/03/13 06:26:11;;;;;;;6.32;5.53;;;;;;;5.54;100.00;95640.31;5028515;28;20380;-67
2023/03/13 06:28:36;;;;;;;5.80;5.30;;;;;;;5.53;100.00;95637.81;5024599;28;20549;-67
2023/03/13 06:31:03;;;;;;;4.78;4.38;;;;;;;5.54;100.00;95636.84;5024633;28;20033;-62
2023/03/13 06:33:29;;;;;;;8.88;5.32;;;;;;;5.59;100.00;95640.81;5019212;28;20398;-65
2023/03/13 06:35:55;;;;;;;6.35;5.57;;;;;;;5.64;100.00;95645.69;5025825;28;20064;-63
2023/03/13 06:38:20;;;;;;;5.18;4.75;;;;;;;5.70;100.00;95647.00;5015752;28;20053;-63
2023/03/13 06:40:45;;;;;;;6.95;4.93;;;;;;;5.77;100.00;95658.69;5024365;28;20018;-63
2023/03/13 06:43:11;;;;;;;11.25;9.98;;;;;;;5.77;100.00;95658.69;5028449;28;20028;-63
2023/03/13 06:45:36;;;;;;;8.98;8.10;;;;;;;5.83;100.00;95657.38;5018731;28;20030;-64
2023/03/13 06:48:03;;;;;;;7.60;6.95;;;;;;;5.92;100.00;95643.66;5021594;28;20022;-63
2023/03/13 06:50:28;;;;;;;7.38;5.43;;;;;;;6.12;100.00;95631.72;5026905;28;20080;-63
2023/03/13 06:52:54;;;;;;;7.13;6.53;;;;;;;6.21;100.00;95634.59;5026429;28;20049;-65
2023/03/13 06:55:19;;;;;;;8.55;7.85;;;;;;;6.28;100.00;95633.19;5029705;28;20033;-63
2023/03/13 06:57:51;;;;;;;7.13;5.75;;;;;;;6.33;100.00;95627.59;5030299;28;20037;-63
2023/03/13 07:00:17;;;;;;;8.35;7.55;;;;;;;6.26;100.00;95632.47;5029555;28;20499;-63
2023/03/13 07:02:42;;;;;;;8.73;7.60;;;;;;;6.29;100.00;95637.47;5023069;28;20049;-63
2023/03/13 07:05:08;;;;;;;7.32;6.55;;;;;;;6.27;100.00;95634.94;5020453;28;20030;-63
2023/03/13 07:07:33;;;;;;;7.18;6.55;;;;;;;6.20;100.00;95628.53;5020535;28;20033;-63
2023/03/13 07:09:59;;;;;;;8.88;7.47;;;;;;;6.16;100.00;95632.34;5025174;28;20033;-71
2023/03/13 07:12:25;;;;;;;8.00;6.50;;;;;;;6.22;100.00;95626.63;5023511;28;20036;-68
2023/03/13 07:14:50;;;;;;;8.32;5.55;;;;;;;6.28;100.00;95609.66;5016888;28;20068;-62
2023/03/13 07:17:15;;;;;;;6.07;5.53;;;;;;;6.34;100.00;95609.16;5027215;28;20120;-62
2023/03/13 07:19:41;;;;;;;6.32;4.88;;;;;;;6.46;100.00;95610.00;5021394;28;20045;-62
2023/03/13 07:22:06;;;;;;;6.03;5.40;;;;;;;6.48;100.00;95604.66;5025129;28;20059;-65
2023/03/13 07:24:32;;;;;;;6.50;5.40;;;;;;;6.55;100.00;95584.94;5029328;28;20053;-63
2023/03/13 07:26:57;;;;;;;8.27;5.78;;;;;;;6.58;100.00;95585.53;5028715;28;20057;-63
2023/03/13 07:29:22;;;;;;;6.55;5.90;;;;;;;6.66;100.00;95584.09;5020777;28;20075;-62
2023/03/13 07:31:48;;;;;;;6.22;5.63;;;;;;;6.69;100.00;95589.91;5028332;28;20395;-62
2023/03/13 07:34:13;;;;;;;7.43;6.65;;;;;;;6.75;100.00;95596.47;5025036;28;20381;-62
2023/03/13 07:36:40;;;;;;;8.88;6.22;;;;;;;6.80;100.00;95610.00;5030634;28;20028;-62
2023/03/13 07:39:06;;;;;;;7.90;6.38;;;;;;;6.81;100.00;95605.59;5025748;28;20032;-61
2023/03/13 07:41:31;;;;;;;6.22;5.63;;;;;;;6.95;100.00;95612.34;5021048;28;20411;-62
2023/03/13 07:43:57;;;;;;;5.93;5.30;;;;;;;7.19;100.00;95604.34;5031484;28;20079;-63
2023/03/13 07:46:22;;;;;;;7.25;5.00;;;;;;;7.73;100.00;95601.75;5014165;28;20029;-62
2023/03/13 07:48:48;;;;;;;7.45;5.47;;;;;;;8.28;100.00;95617.28;5026297;28;20439;-64
2023/03/13 07:51:24;;;;;;;3.90;3.60;;;;;;;8.67;100.00;95610.59;5031225;28;20112;-60
2023/03/13 07:53:50;;;;;;;5.95;4.80;;;;;;;8.83;100.00;95613.56;5028033;28;20091;-62
2023/03/13 07:56:21;;;;;;;5.07;3.88;;;;;;;8.64;100.00;95605.63;5021517;28;20037;-62
2023/03/13 07:58:47;;;;;;;2.80;2.60;;;;;;;8.67;100.00;95605.34;5021839;28;20032;-63
2023/03/13 08:01:15;;;;;;;4.05;2.40;;;;;;;8.88;100.00;95602.69;5030517;28;20033;-62
2023/03/13 09:07:24;;;;;;;3.22;2.15;;;;;;;11.84;89.49;95505.97;5106172;27;20399;-63
2023/03/13 09:09:50;;;;;;;3.17;2.10;;;;;;;11.71;91.32;95498.47;5093843;28;20024;-63
2023/03/13 09:12:15;;;;;;;3.58;2.58;;;;;;;11.62;92.54;95504.66;5097188;28;20020;-63
2023/03/13 09:14:41;;;;;;;2.10;1.92;;;;;;;11.78;90.75;95489.94;5093968;27;20024;-63
2023/03/13 09:17:06;;;;;;;3.42;2.20;;;;;;;11.59;90.17;95484.69;5099387;28;20084;-63
2023/03/13 09:19:32;;;;;;;2.75;2.17;;;;;;;11.67;90.75;95470.75;5094083;28;20023;-64
2023/03/13 09:21:58;;;;;;;3.17;2.10;;;;;;;11.67;90.85;95470.75;5092780;28;20024;-63
2023/03/13 19:37:55;;;;;;;1.52;1.42;;;;;;;18.63;44.40;94446.44;5111713;27;20400;-64
2023/03/13 19:40:24;;;;;;;3.45;1.30;;;;;;;18.66;44.54;94454.00;5113307;28;20019;-64
2023/03/13 19:42:50;;;;;;;1.95;1.77;;;;;;;18.47;44.91;94430.84;5110624;28;20030;-64
2023/03/13 19:45:20;;;;;;;2.17;1.52;;;;;;;18.49;45.16;94430.63;5113423;28;20015;-64
2023/03/13 19:47:46;;;;;;;1.52;1.42;;;;;;;18.37;45.38;94429.72;5105785;28;20059;-65
2023/03/13 19:50:17;;;;;;;1.90;1.80;;;;;;;18.42;45.18;94395.22;5113412;28;20047;-64
2023/03/13 19:52:44;;;;;;;2.25;1.65;;;;;;;18.44;45.49;94393.16;5111705;28;20118;-65
2023/03/13 19:55:10;;;;;;;4.15;2.67;;;;;;;18.32;45.81;94377.94;5111411;28;20532;-64
2023/03/13 19:57:36;;;;;;;2.63;1.85;;;;;;;18.29;46.17;94357.06;5113581;28;20024;-64
2023/03/13 20:00:04;;;;;;;1.30;1.30;;;;;;;18.40;45.51;94355.50;5113217;28;20030;-65
2023/03/13 20:02:29;;;;;;;2.70;2.50;;;;;;;18.15;46.34;94326.28;5113521;28;20042;-64
2023/03/13 20:04:55;;;;;;;2.05;1.70;;;;;;;18.39;45.64;94318.41;5110762;28;20072;-64
2023/03/13 20:07:20;;;;;;;4.72;2.60;;;;;;;18.16;46.17;94299.44;5104632;28;20020;-64
2023/03/13 20:09:46;;;;;;;1.88;1.75;;;;;;;18.32;45.78;94321.97;5113161;28;20098;-64
2023/03/13 20:12:11;;;;;;;2.15;1.77;;;;;;;18.35;46.20;94322.56;5113663;28;20030;-64
2023/03/13 20:14:37;;;;;;;1.98;1.80;;;;;;;18.26;46.54;94330.06;5110804;28;20024;-64
2023/03/13 20:17:02;;;;;;;1.92;1.60;;;;;;;18.23;46.66;94346.47;5107106;28;20019;-65
2023/03/13 20:19:28;;;;;;;3.03;1.85;;;;;;;18.21;48.63;94317.41;5110197;28;20020;-64
2023/03/13 20:21:58;;;;;;;4.20;1.67;;;;;;;17.84;51.57;94312.06;5111743;28;20020;-64
2023/03/13 20:24:24;;;;;;;2.30;2.10;;;;;;;17.53;53.57;94322.59;5111232;28;20031;-65
2023/03/13 20:26:49;;;;;;;2.50;2.30;;;;;;;17.39;53.44;94323.75;5110242;28;20468;-67
2023/03/13 20:29:15;;;;;;;1.70;1.60;;;;;;;17.40;53.52;94333.34;5113299;28;20016;-66
2023/03/13 20:31:40;;;;;;;1.92;1.83;;;;;;;17.24;54.97;94329.38;5103148;28;20554;-66
2023/03/13 20:34:06;;;;;;;7.47;3.10;;;;;;;17.16;55.86;94354.41;5133748;28;20031;-67
2023/03/13 20:36:31;;;;;;;6.78;2.25;;;;;;;16.88;57.10;94356.38;5133628;28;20051;-68
2023/03/13 20:38:57;;;;;;;2.70;1.80;;;;;;;16.99;56.14;94349.59;5119692;28;20028;-67
2023/03/13 20:41:26;;;;;;;3.35;2.10;;;;;;;17.17;56.07;94371.97;5112925;28;20020;-67
2023/03/13 20:43:52;;;;;;;3.40;2.03;;;;;;;17.02;58.08;94366.97;5106718;28;20031;-67
2023/03/13 20:46:18;;;;;;;2.53;1.52;;;;;;;16.69;60.13;94373.25;5112604;28;20028;-67
2023/03/13 20:48:43;;;;;;;2.72;1.65;;;;;;;16.86;59.56;94355.78;5101183;28;20032;-67
2023/03/13 20:51:08;;;;;;;2.63;2.03;;;;;;;16.83;58.61;94385.44;5098964;28;20484;-70
2023/03/13 20:53:39;;;;;;;1.90;1.80;;;;;;;16.75;58.44;94377.75;5096765;28;20488;-69
2023/03/13 20:56:05;;;;;;;3.65;1.90;;;;;;;16.75;59.47;94367.91;5086975;28;20024;-73
2023/03/13 20:58:31;;;;;;;2.78;2.20;;;;;;;16.51;60.83;94364.16;5096827;28;20039;-68
2023/03/13 21:01:01;;;;;;;2.35;2.00;;;;;;;16.50;62.11;94381.13;5094076;28;20310;-70
2023/03/13 21:03:26;;;;;;;1.98;1.88;;;;;;;16.53;61.32;94372.75;5096430;28;20485;-68
2023/03/13 21:05:52;;;;;;;2.83;2.08;;;;;;;16.41;61.58;94395.66;5098672;28;20024;-68
2023/03/13 21:08:17;;;;;;;4.47;1.77;;;;;;;16.32;62.91;94395.06;5098242;28;20024;-69
2023/03/13 21:10:43;;;;;;;2.70;2.40;;;;;;;15.96;66.88;94407.03;5098408;28;20129;-68
2023/03/13 21:13:09;;;;;;;4.40;2.22;;;;;;;15.99;64.46;94419.88;5098625;28;20043;-67
2023/03/13 21:15:34;;;;;;;1.58;1.48;;;;;;;16.17;62.26;94408.59;5095772;28;20436;-66
2023/03/13 21:18:01;;;;;;;2.72;1.77;;;;;;;16.39;61.54;94450.84;5097632;28;20020;-67
2023/03/13 21:20:27;;;;;;;1.80;1.70;;;;;;;16.08;62.92;94433.75;5097866;28;20039;-68
2023/03/13 21:22:53;;;;;;;2.20;2.00;;;;;;;15.82;66.54;94433.53;5097675;28;20032;-69
2023/03/13 21:25:18;;;;;;;4.20;2.08;;;;;;;15.70;68.79;94454.56;5097311;28;20074;-68
2023/03/13 21:27:44;;;;;;;5.97;2.42;;;;;;;15.36;72.62;94466.19;5097616;28;20445;-68
2023/03/13 21:30:12;;;;;;;3.25;2.38;;;;;;;15.13;75.73;94465.50;5097815;28;20043;-68
2023/03/13 21:32:39;;;;;;;2.85;2.20;;;;;;;15.30;71.58;94473.09;5079695;28;20038;-68
2023/03/13 21:35:06;;;;;;;3.88;2.20;;;;;;;15.31;75.18;94488.81;5096823;28;20035;-68
2023/03/13 21:37:32;;;;;;;3.95;2.70;;;;;;;14.58;80.42;94484.88;5097259;28;20189;-67
2023/03/13 21:39:58;;;;;;;1.90;1.85;;;;;;;14.63;79.81;94475.50;5096859;28;20062;-68
2023/03/13 21:42:23;;;;;;;5.25;2.50;;;;;;;14.50;81.25;94486.84;5097494;28;20361;-68
2023/03/13 21:44:49;;;;;;;2.75;2.55;;;;;;;14.30;82.72;94496.34;5097340;28;20023;-67
2023/03/13 21:47:23;;;;;;;2.13;2.03;;;;;;;14.30;83.01;94476.97;5097383;28;20313;-69
2023/03/13 21:49:53;;;;;;;5.22;2.55;;;;;;;14.27;81.43;94477.38;5095632;28;20028;-70
2023/03/13 21:52:19;;;;;;;3.28;2.42;;;;;;;14.51;79.47;94491.97;5097185;28;20035;-69
2023/03/13 21:54:44;;;;;;;3.45;2.60;;;;;;;14.38;81.35;94489.25;5096313;28;20111;-70
2023/03/13 21:57:10;;;;;;;6.70;2.40;;;;;;;14.24;82.51;94493.63;5096491;28;20035;-70
2023/03/13 21:59:35;;;;;;;8.50;3.17;;;;;;;14.49;80.86;94498.47;5096293;28;20042;-68
2023/03/13 22:02:01;;;;;;;2.90;2.70;;;;;;;14.18;84.05;94508.47;5097200;28;20469;-71
2023/03/13 22:04:27;;;;;;;3.17;2.83;;;;;;;13.97;84.00;94501.41;5105940;28;20127;-71
2023/03/13 22:06:52;;;;;;;6.22;3.55;;;;;;;14.09;84.10;94512.28;5096289;28;20055;-68
2023/03/13 22:09:18;;;;;;;2.42;2.22;;;;;;;14.49;79.04;94503.75;5096892;28;20074;-69
2023/03/13 22:11:44;;;;;;;3.78;3.08;;;;;;;14.28;82.38;94532.78;5096928;28;20043;-69
2023/03/13 22:14:09;;;;;;;3.33;2.58;;;;;;;14.04;85.32;94563.13;5097077;28;20640;-70
2023/03/13 22:16:35;;;;;;;5.85;2.90;;;;;;;13.77;88.70;94565.53;5092157;28;20115;-70
2023/03/13 22:19:00;;;;;;;4.57;2.97;;;;;;;13.38;93.50;94577.31;5085299;28;20073;-69
2023/03/13 22:21:26;;;;;;;7.80;3.70;;;;;;;13.23;98.05;94585.28;5089134;28;20059;-67
2023/03/13 22:23:51;;;;;;;3.67;2.33;;;;;;;12.74;98.58;94596.25;5096522;28;20130;-67
2023/03/13 22:26:17;;;;;;;4.40;2.30;;;;;;;12.57;100.00;94616.75;5096430;28;20058;-68
2023/03/13 22:28:42;;;;;;;1.98;1.50;;;;;;;12.58;97.14;94660.63;5095654;28;20036;-68
2023/03/13 22:31:10;;;;;;;1.52;1.27;;;;;;;12.34;94.68;94676.69;5100334;28;20444;-69
2023/03/13 22:33:35;;;;;;;1.50;1.40;;;;;;;12.03;98.93;94702.13;5117106;28;20027;-67
2023/03/13 22:36:01;;;;;;;1.65;1.55;;;;;;;12.17;99.53;94733.06;5088513;28;20097;-68
2023/03/13 22:38:27;;;;;;;2.15;1.95;;;;;;;11.89;100.00;94759.06;5083230;28;20097;-68
2023/03/13 22:41:01;;;;;;;2.28;1.90;;;;;;;11.73;100.00;94718.59;5084883;28;20028;-68
2023/03/13 22:43:27;;;;;;;3.33;2.42;;;;;;;11.59;100.00;94728.06;5095152;28;20028;-68
2023/03/13 22:45:53;;;;;;;2.30;2.10;;;;;;;11.37;100.00;94742.78;5095663;28;20039;-68